sensor_id;sensor_type;location;lat;lon;timestamp;pressure;altitude;pressure_sealevel;temperature;humidity
71772;BME280;59606;52.138;5.424;2022-07-23T00:00:14;102061.47;;;16.86;70.68
71772;BME280;59606;52.138;5.424;2022-07-23T00:02:41;102051.88;;;16.85;70.32
71772;BME280;59606;52.138;5.424;2022-07-23T00:05:08;102042.31;;;16.84;70.66
71772;BME280;59606;52.138;5.424;2022-07-23T00:07:34;102041.53;;;16.82;70.72
71772;BME280;59606;52.138;5.424;2022-07-23T00:10:02;102043.50;;;16.79;71.22
71772;BME280;59606;52.138;5.424;2022-07-23T00:12:28;102035.03;;;16.73;71.40
71772;BME280;59606;52.138;5.424;2022-07-23T00:14:55;102036.06;;;16.71;71.70
71772;BME280;59606;52.138;5.424;2022-07-23T00:17:22;102046.97;;;16.65;71.71
71772;BME280;59606;52.138;5.424;2022-07-23T00:19:48;102050.72;;;16.61;72.11
71772;BME280;59606;52.138;5.424;2022-07-23T00:22:15;102043.97;;;16.57;71.93
71772;BME280;59606;52.138;5.424;2022-07-23T00:24:41;102052.78;;;16.56;71.25
71772;BME280;59606;52.138;5.424;2022-07-23T00:27:08;102045.06;;;16.53;71.70
71772;BME280;59606;52.138;5.424;2022-07-23T00:29:34;102045.25;;;16.49;71.92
71772;BME280;59606;52.138;5.424;2022-07-23T00:32:01;102049.84;;;16.46;72.15
71772;BME280;59606;52.138;5.424;2022-07-23T00:34:27;102043.94;;;16.42;72.16
71772;BME280;59606;52.138;5.424;2022-07-23T00:36:54;102032.69;;;16.40;71.93
71772;BME280;59606;52.138;5.424;2022-07-23T00:39:20;102036.34;;;16.38;72.05
71772;BME280;59606;52.138;5.424;2022-07-23T00:41:49;102034.00;;;16.33;72.64
71772;BME280;59606;52.138;5.424;2022-07-23T00:44:22;102042.91;;;16.31;72.78
71772;BME280;59606;52.138;5.424;2022-07-23T00:46:54;102042.25;;;16.27;72.93
71772;BME280;59606;52.138;5.424;2022-07-23T00:49:22;102034.53;;;16.24;72.69
71772;BME280;59606;52.138;5.424;2022-07-23T00:51:49;102029.44;;;16.21;72.74
71772;BME280;59606;52.138;5.424;2022-07-23T00:54:17;102024.38;;;16.18;72.98
71772;BME280;59606;52.138;5.424;2022-07-23T00:56:45;102025.50;;;16.14;72.96
71772;BME280;59606;52.138;5.424;2022-07-23T00:59:12;102019.59;;;16.10;73.13
71772;BME280;59606;52.138;5.424;2022-07-23T01:01:39;102025.94;;;16.06;73.08
71772;BME280;59606;52.138;5.424;2022-07-23T01:04:06;102017.50;;;16.01;73.82
71772;BME280;59606;52.138;5.424;2022-07-23T01:06:35;102014.84;;;16.01;73.88
71772;BME280;59606;52.138;5.424;2022-07-23T01:09:03;102015.03;;;15.98;73.75
71772;BME280;59606;52.138;5.424;2022-07-23T01:11:33;102016.16;;;15.94;73.92
71772;BME280;59606;52.138;5.424;2022-07-23T01:14:08;102011.16;;;15.89;74.23
71772;BME280;59606;52.138;5.424;2022-07-23T01:16:34;102011.25;;;15.88;74.68
71772;BME280;59606;52.138;5.424;2022-07-23T01:19:01;102015.00;;;15.84;74.87
71772;BME280;59606;52.138;5.424;2022-07-23T01:21:29;102016.88;;;15.82;75.00
71772;BME280;59606;52.138;5.424;2022-07-23T01:23:56;102017.81;;;15.81;74.36
71772;BME280;59606;52.138;5.424;2022-07-23T01:26:23;102011.03;;;15.76;74.74
71772;BME280;59606;52.138;5.424;2022-07-23T01:28:50;102010.28;;;15.74;74.64
71772;BME280;59606;52.138;5.424;2022-07-23T01:31:16;102006.03;;;15.72;74.63
71772;BME280;59606;52.138;5.424;2022-07-23T01:33:44;102005.38;;;15.68;74.55
71772;BME280;59606;52.138;5.424;2022-07-23T01:36:10;102010.72;;;15.67;74.87
71772;BME280;59606;52.138;5.424;2022-07-23T01:38:37;102003.94;;;15.63;74.87
71772;BME280;59606;52.138;5.424;2022-07-23T01:41:04;102007.66;;;15.59;74.86
71772;BME280;59606;52.138;5.424;2022-07-23T01:43:32;102007.75;;;15.57;74.92
71772;BME280;59606;52.138;5.424;2022-07-23T01:45:58;102000.81;;;15.56;74.77
71772;BME280;59606;52.138;5.424;2022-07-23T01:48:25;102007.16;;;15.52;74.88
71772;BME280;59606;52.138;5.424;2022-07-23T01:50:52;102006.47;;;15.48;75.02
71772;BME280;59606;52.138;5.424;2022-07-23T01:53:18;102006.66;;;15.45;74.88
71772;BME280;59606;52.138;5.424;2022-07-23T01:55:45;102007.59;;;15.44;74.87
71772;BME280;59606;52.138;5.424;2022-07-23T01:58:11;102011.22;;;15.42;74.93
71772;BME280;59606;52.138;5.424;2022-07-23T02:00:38;102006.91;;;15.41;75.00
71772;BME280;59606;52.138;5.424;2022-07-23T02:03:05;102007.09;;;15.38;75.32
71772;BME280;59606;52.138;5.424;2022-07-23T02:05:36;102010.00;;;15.33;75.43
71772;BME280;59606;52.138;5.424;2022-07-23T02:08:02;101999.56;;;15.31;75.58
71772;BME280;59606;52.138;5.424;2022-07-23T02:10:29;101999.81;;;15.27;75.52
71772;BME280;59606;52.138;5.424;2022-07-23T02:12:55;102004.41;;;15.23;75.98
71772;BME280;59606;52.138;5.424;2022-07-23T02:15:22;102001.78;;;15.23;75.91
71772;BME280;59606;52.138;5.424;2022-07-23T02:17:49;102004.47;;;15.22;76.01
71772;BME280;59606;52.138;5.424;2022-07-23T02:20:16;102005.69;;;15.16;76.30
71772;BME280;59606;52.138;5.424;2022-07-23T02:22:42;101990.00;;;15.15;76.28
71772;BME280;59606;52.138;5.424;2022-07-23T02:25:09;102001.50;;;15.12;76.21
71772;BME280;59606;52.138;5.424;2022-07-23T02:27:36;101994.66;;;15.09;76.21
71772;BME280;59606;52.138;5.424;2022-07-23T02:30:03;101994.72;;;15.08;76.73
71772;BME280;59606;52.138;5.424;2022-07-23T02:32:30;101997.47;;;15.06;76.70
71772;BME280;59606;52.138;5.424;2022-07-23T02:34:57;102002.94;;;15.02;76.70
71772;BME280;59606;52.138;5.424;2022-07-23T02:37:23;101999.63;;;14.98;76.46
71772;BME280;59606;52.138;5.424;2022-07-23T02:39:50;102010.25;;;14.97;76.91
71772;BME280;59606;52.138;5.424;2022-07-23T02:42:17;102005.16;;;14.94;76.38
71772;BME280;59606;52.138;5.424;2022-07-23T02:44:44;102000.84;;;14.93;76.68
71772;BME280;59606;52.138;5.424;2022-07-23T02:47:10;102000.06;;;14.91;76.45
71772;BME280;59606;52.138;5.424;2022-07-23T02:49:37;102002.84;;;14.88;76.61
71772;BME280;59606;52.138;5.424;2022-07-23T02:52:04;102005.75;;;14.83;77.14
71772;BME280;59606;52.138;5.424;2022-07-23T02:54:30;102015.63;;;14.78;76.97
71772;BME280;59606;52.138;5.424;2022-07-23T02:56:57;102014.88;;;14.76;76.82
71772;BME280;59606;52.138;5.424;2022-07-23T02:59:23;102016.81;;;14.72;76.62
71772;BME280;59606;52.138;5.424;2022-07-23T03:01:50;102017.72;;;14.71;77.94
71772;BME280;59606;52.138;5.424;2022-07-23T03:04:16;102010.84;;;14.69;77.34
71772;BME280;59606;52.138;5.424;2022-07-23T03:06:43;102014.50;;;14.66;77.73
71772;BME280;59606;52.138;5.424;2022-07-23T03:09:09;102018.22;;;14.62;77.79
71772;BME280;59606;52.138;5.424;2022-07-23T03:11:36;102022.69;;;14.60;77.59
71772;BME280;59606;52.138;5.424;2022-07-23T03:14:03;102031.66;;;14.56;77.99
71772;BME280;59606;52.138;5.424;2022-07-23T03:16:29;102032.66;;;14.53;77.79
71772;BME280;59606;52.138;5.424;2022-07-23T03:18:56;102032.66;;;14.53;77.80
71772;BME280;59606;52.138;5.424;2022-07-23T03:21:23;102029.31;;;14.50;77.85
71772;BME280;59606;52.138;5.424;2022-07-23T03:23:49;102023.31;;;14.48;77.61
71772;BME280;59606;52.138;5.424;2022-07-23T03:26:16;102028.63;;;14.46;78.05
71772;BME280;59606;52.138;5.424;2022-07-23T03:28:42;102027.88;;;14.44;77.83
71772;BME280;59606;52.138;5.424;2022-07-23T03:31:09;102032.41;;;14.41;77.66
71772;BME280;59606;52.138;5.424;2022-07-23T03:33:35;102036.91;;;14.38;77.79
71772;BME280;59606;52.138;5.424;2022-07-23T03:36:02;102032.66;;;14.36;77.82
71772;BME280;59606;52.138;5.424;2022-07-23T03:38:34;102040.53;;;14.36;77.95
71772;BME280;59606;52.138;5.424;2022-07-23T03:41:01;102040.53;;;14.36;77.91
71772;BME280;59606;52.138;5.424;2022-07-23T03:43:28;102038.06;;;14.33;78.03
71772;BME280;59606;52.138;5.424;2022-07-23T03:45:54;102044.31;;;14.30;78.19
71772;BME280;59606;52.138;5.424;2022-07-23T03:48:21;102033.81;;;14.30;77.54
71772;BME280;59606;52.138;5.424;2022-07-23T03:50:48;102039.06;;;14.30;77.97
71772;BME280;59606;52.138;5.424;2022-07-23T03:53:14;102041.78;;;14.29;78.10
71772;BME280;59606;52.138;5.424;2022-07-23T03:55:41;102028.66;;;14.29;77.61
71772;BME280;59606;52.138;5.424;2022-07-23T03:58:07;102029.56;;;14.28;78.42
71772;BME280;59606;52.138;5.424;2022-07-23T04:00:34;102037.44;;;14.28;78.58
71772;BME280;59606;52.138;5.424;2022-07-23T04:03:01;102028.72;;;14.27;78.53
71772;BME280;59606;52.138;5.424;2022-07-23T04:05:27;102025.38;;;14.25;78.31
71772;BME280;59606;52.138;5.424;2022-07-23T04:07:54;102020.19;;;14.24;78.32
71772;BME280;59606;52.138;5.424;2022-07-23T04:10:20;102017.66;;;14.22;78.53
71772;BME280;59606;52.138;5.424;2022-07-23T04:12:47;102020.28;;;14.22;78.87
71772;BME280;59606;52.138;5.424;2022-07-23T04:15:13;102027.19;;;14.23;78.46
71772;BME280;59606;52.138;5.424;2022-07-23T04:17:40;102031.50;;;14.24;78.78
71772;BME280;59606;52.138;5.424;2022-07-23T04:20:07;102028.97;;;14.23;79.22
71772;BME280;59606;52.138;5.424;2022-07-23T04:22:33;102022.75;;;14.25;78.88
71772;BME280;59606;52.138;5.424;2022-07-23T04:25:00;102021.66;;;14.29;79.04
71772;BME280;59606;52.138;5.424;2022-07-23T04:27:26;102019.03;;;14.29;79.06
71772;BME280;59606;52.138;5.424;2022-07-23T04:29:53;102022.50;;;14.30;79.07
71772;BME280;59606;52.138;5.424;2022-07-23T04:32:19;102025.13;;;14.30;79.04
71772;BME280;59606;52.138;5.424;2022-07-23T04:34:46;102024.19;;;14.31;78.72
71772;BME280;59606;52.138;5.424;2022-07-23T04:37:12;102024.13;;;14.32;78.98
71772;BME280;59606;52.138;5.424;2022-07-23T04:39:39;102019.56;;;14.36;78.95
71772;BME280;59606;52.138;5.424;2022-07-23T04:42:05;102025.66;;;14.36;78.90
71772;BME280;59606;52.138;5.424;2022-07-23T04:44:32;102029.13;;;14.37;79.10
71772;BME280;59606;52.138;5.424;2022-07-23T04:46:58;102029.94;;;14.37;79.38
71772;BME280;59606;52.138;5.424;2022-07-23T04:49:25;102032.50;;;14.39;80.00
71772;BME280;59606;52.138;5.424;2022-07-23T04:51:52;102035.28;;;14.36;80.45
71772;BME280;59606;52.138;5.424;2022-07-23T04:54:18;102040.44;;;14.37;80.47
71772;BME280;59606;52.138;5.424;2022-07-23T04:56:44;102042.06;;;14.40;80.98
71772;BME280;59606;52.138;5.424;2022-07-23T04:59:11;102042.91;;;14.41;80.82
71772;BME280;59606;52.138;5.424;2022-07-23T05:01:37;102046.38;;;14.41;80.98
71772;BME280;59606;52.138;5.424;2022-07-23T05:04:04;102044.28;;;14.48;81.02
71772;BME280;59606;52.138;5.424;2022-07-23T05:06:31;102054.59;;;14.52;81.22
71772;BME280;59606;52.138;5.424;2022-07-23T05:08:57;102040.22;;;14.59;80.83
71772;BME280;59606;52.138;5.424;2022-07-23T05:11:24;102039.91;;;14.66;81.10
71772;BME280;59606;52.138;5.424;2022-07-23T05:13:52;102040.50;;;14.71;80.94
71772;BME280;59606;52.138;5.424;2022-07-23T05:16:19;102042.84;;;14.75;81.07
71772;BME280;59606;52.138;5.424;2022-07-23T05:18:46;102049.56;;;14.81;80.65
71772;BME280;59606;52.138;5.424;2022-07-23T05:21:12;102049.25;;;14.87;80.60
71772;BME280;59606;52.138;5.424;2022-07-23T05:23:39;102057.53;;;14.95;81.12
71772;BME280;59606;52.138;5.424;2022-07-23T05:26:05;102052.13;;;14.98;81.39
71772;BME280;59606;52.138;5.424;2022-07-23T05:28:32;102043.94;;;15.04;81.24
71772;BME280;59606;52.138;5.424;2022-07-23T05:30:58;102046.13;;;15.12;80.70
71772;BME280;59606;52.138;5.424;2022-07-23T05:33:25;102053.44;;;15.23;80.91
71772;BME280;59606;52.138;5.424;2022-07-23T05:35:51;102058.09;;;15.33;81.43
71772;BME280;59606;52.138;5.424;2022-07-23T05:38:18;102053.59;;;15.51;81.82
71772;BME280;59606;52.138;5.424;2022-07-23T05:40:44;102067.69;;;15.66;82.09
71772;BME280;59606;52.138;5.424;2022-07-23T05:43:11;102067.41;;;15.71;80.19
71772;BME280;59606;52.138;5.424;2022-07-23T05:45:37;102065.44;;;15.74;81.02
71772;BME280;59606;52.138;5.424;2022-07-23T05:48:04;102061.53;;;15.82;80.03
71772;BME280;59606;52.138;5.424;2022-07-23T05:50:31;102065.50;;;15.89;78.68
71772;BME280;59606;52.138;5.424;2022-07-23T05:52:57;102071.75;;;16.02;77.93
71772;BME280;59606;52.138;5.424;2022-07-23T05:55:24;102074.06;;;16.22;77.79
71772;BME280;59606;52.138;5.424;2022-07-23T05:57:50;102076.47;;;16.56;76.16
71772;BME280;59606;52.138;5.424;2022-07-23T06:00:17;102063.91;;;17.04;73.75
71772;BME280;59606;52.138;5.424;2022-07-23T06:02:43;102072.22;;;17.66;73.21
71772;BME280;59606;52.138;5.424;2022-07-23T06:05:10;102069.53;;;18.20;71.31
71772;BME280;59606;52.138;5.424;2022-07-23T06:07:36;102070.31;;;18.48;68.10
71772;BME280;59606;52.138;5.424;2022-07-23T06:10:04;102070.81;;;18.40;67.04
71772;BME280;59606;52.138;5.424;2022-07-23T06:12:31;102071.44;;;18.18;67.47
71772;BME280;59606;52.138;5.424;2022-07-23T06:14:57;102067.19;;;17.76;68.65
71772;BME280;59606;52.138;5.424;2022-07-23T06:17:24;102073.03;;;17.39;70.35
71772;BME280;59606;52.138;5.424;2022-07-23T06:19:51;102072.69;;;17.31;71.31
71772;BME280;59606;52.138;5.424;2022-07-23T06:22:17;102070.41;;;17.39;71.38
71772;BME280;59606;52.138;5.424;2022-07-23T06:24:44;102076.41;;;17.56;71.97
71772;BME280;59606;52.138;5.424;2022-07-23T06:27:11;102070.38;;;17.54;71.91
71772;BME280;59606;52.138;5.424;2022-07-23T06:29:37;102069.81;;;17.22;71.85
71772;BME280;59606;52.138;5.424;2022-07-23T06:32:04;102074.91;;;17.10;72.78
71772;BME280;59606;52.138;5.424;2022-07-23T06:34:31;102077.28;;;17.01;75.41
71772;BME280;59606;52.138;5.424;2022-07-23T06:36:57;102079.50;;;17.07;72.95
71772;BME280;59606;52.138;5.424;2022-07-23T06:39:25;102082.34;;;17.04;72.73
71772;BME280;59606;52.138;5.424;2022-07-23T06:41:51;102088.91;;;17.11;73.19
71772;BME280;59606;52.138;5.424;2022-07-23T06:44:25;102076.41;;;17.14;72.79
71772;BME280;59606;52.138;5.424;2022-07-23T06:46:52;102077.22;;;17.29;72.63
71772;BME280;59606;52.138;5.424;2022-07-23T06:49:18;102083.69;;;17.38;71.96
71772;BME280;59606;52.138;5.424;2022-07-23T06:51:45;102089.97;;;17.50;72.82
71772;BME280;59606;52.138;5.424;2022-07-23T06:54:11;102089.25;;;17.60;71.60
71772;BME280;59606;52.138;5.424;2022-07-23T06:56:38;102082.13;;;17.62;71.80
71772;BME280;59606;52.138;5.424;2022-07-23T06:59:04;102088.41;;;17.74;71.89
71772;BME280;59606;52.138;5.424;2022-07-23T07:01:31;102087.28;;;17.78;70.75
71772;BME280;59606;52.138;5.424;2022-07-23T07:03:58;102085.94;;;17.85;71.64
71772;BME280;59606;52.138;5.424;2022-07-23T07:06:25;102080.38;;;18.03;70.84
71772;BME280;59606;52.138;5.424;2022-07-23T07:08:51;102079.38;;;18.18;69.44
71772;BME280;59606;52.138;5.424;2022-07-23T07:11:18;102085.06;;;18.25;69.83
71772;BME280;59606;52.138;5.424;2022-07-23T07:13:44;102091.50;;;18.33;67.94
71772;BME280;59606;52.138;5.424;2022-07-23T07:16:11;102092.34;;;18.34;67.41
71772;BME280;59606;52.138;5.424;2022-07-23T07:18:37;102092.88;;;18.26;68.04
71772;BME280;59606;52.138;5.424;2022-07-23T07:21:04;102091.06;;;18.27;66.07
71772;BME280;59606;52.138;5.424;2022-07-23T07:23:30;102097.72;;;18.20;66.39
71772;BME280;59606;52.138;5.424;2022-07-23T07:25:57;102098.31;;;18.10;66.57
71772;BME280;59606;52.138;5.424;2022-07-23T07:28:23;102097.38;;;18.11;65.64
71772;BME280;59606;52.138;5.424;2022-07-23T07:30:50;102104.22;;;18.01;65.19
71772;BME280;59606;52.138;5.424;2022-07-23T07:33:17;102111.66;;;18.22;67.10
71772;BME280;59606;52.138;5.424;2022-07-23T07:35:43;102104.94;;;18.56;68.00
71772;BME280;59606;52.138;5.424;2022-07-23T07:38:10;102110.78;;;18.74;64.67
71772;BME280;59606;52.138;5.424;2022-07-23T07:40:36;102112.03;;;18.68;64.73
71772;BME280;59606;52.138;5.424;2022-07-23T07:43:03;102104.09;;;18.81;63.35
71772;BME280;59606;52.138;5.424;2022-07-23T07:45:30;102110.13;;;18.83;63.18
71772;BME280;59606;52.138;5.424;2022-07-23T07:47:57;102120.19;;;18.78;63.11
71772;BME280;59606;52.138;5.424;2022-07-23T07:50:24;102112.03;;;18.81;62.54
71772;BME280;59606;52.138;5.424;2022-07-23T07:52:51;102116.69;;;18.77;60.80
71772;BME280;59606;52.138;5.424;2022-07-23T07:55:18;102116.69;;;18.77;61.42
71772;BME280;59606;52.138;5.424;2022-07-23T07:57:45;102119.66;;;18.86;61.69
71772;BME280;59606;52.138;5.424;2022-07-23T08:00:15;102114.03;;;18.90;61.54
71772;BME280;59606;52.138;5.424;2022-07-23T08:02:47;102116.88;;;19.00;65.85
71772;BME280;59606;52.138;5.424;2022-07-23T08:05:22;102122.84;;;19.27;62.79
71772;BME280;59606;52.138;5.424;2022-07-23T08:07:53;102116.56;;;19.41;61.51
71772;BME280;59606;52.138;5.424;2022-07-23T08:10:20;102128.94;;;19.41;64.03
71772;BME280;59606;52.138;5.424;2022-07-23T08:12:49;102132.22;;;19.44;61.50
71772;BME280;59606;52.138;5.424;2022-07-23T08:15:18;102120.59;;;19.47;61.01
71772;BME280;59606;52.138;5.424;2022-07-23T08:17:46;102117.59;;;19.51;62.71
71772;BME280;59606;52.138;5.424;2022-07-23T08:20:15;102120.25;;;19.51;60.60
71772;BME280;59606;52.138;5.424;2022-07-23T08:25:09;102123.50;;;19.68;59.86
71772;BME280;59606;52.138;5.424;2022-07-23T08:27:36;102118.59;;;19.74;62.56
71772;BME280;59606;52.138;5.424;2022-07-23T08:30:03;102121.81;;;19.91;60.42
71772;BME280;59606;52.138;5.424;2022-07-23T08:32:30;102129.81;;;20.02;59.44
71772;BME280;59606;52.138;5.424;2022-07-23T08:35:10;102127.72;;;19.94;57.31
71772;BME280;59606;52.138;5.424;2022-07-23T08:37:37;102131.94;;;19.97;58.62
71772;BME280;59606;52.138;5.424;2022-07-23T08:40:04;102122.09;;;19.99;58.80
71772;BME280;59606;52.138;5.424;2022-07-23T08:42:30;102125.97;;;20.06;59.39
71772;BME280;59606;52.138;5.424;2022-07-23T08:45:02;102127.44;;;20.10;61.45
71772;BME280;59606;52.138;5.424;2022-07-23T08:47:29;102125.66;;;20.22;59.33
71772;BME280;59606;52.138;5.424;2022-07-23T08:49:58;102129.03;;;20.24;59.69
71772;BME280;59606;52.138;5.424;2022-07-23T08:52:26;102128.31;;;20.22;57.75
71772;BME280;59606;52.138;5.424;2022-07-23T08:54:54;102125.47;;;20.36;58.15
71772;BME280;59606;52.138;5.424;2022-07-23T08:57:21;102125.97;;;20.41;55.80
71772;BME280;59606;52.138;5.424;2022-07-23T08:59:47;102136.69;;;20.40;58.37
71772;BME280;59606;52.138;5.424;2022-07-23T09:02:14;102126.69;;;20.43;58.64
71772;BME280;59606;52.138;5.424;2022-07-23T09:04:40;102127.81;;;20.52;55.47
71772;BME280;59606;52.138;5.424;2022-07-23T09:07:07;102126.88;;;20.53;54.73
71772;BME280;59606;52.138;5.424;2022-07-23T09:09:34;102127.47;;;20.57;54.59
71772;BME280;59606;52.138;5.424;2022-07-23T09:12:05;102124.84;;;20.68;56.62
71772;BME280;59606;52.138;5.424;2022-07-23T09:14:41;102127.50;;;20.90;54.67
71772;BME280;59606;52.138;5.424;2022-07-23T09:17:15;102127.03;;;21.08;56.19
71772;BME280;59606;52.138;5.424;2022-07-23T09:19:43;102131.72;;;21.15;54.75
71772;BME280;59606;52.138;5.424;2022-07-23T09:22:23;102130.75;;;21.28;54.98
71772;BME280;59606;52.138;5.424;2022-07-23T09:25:10;102131.59;;;21.28;54.98
71772;BME280;59606;52.138;5.424;2022-07-23T09:27:56;102133.78;;;21.23;56.03
71772;BME280;59606;52.138;5.424;2022-07-23T09:30:26;102130.25;;;21.23;53.82
71772;BME280;59606;52.138;5.424;2022-07-23T09:33:14;102131.97;;;21.24;54.01
71772;BME280;59606;52.138;5.424;2022-07-23T09:38:16;102134.03;;;21.20;53.46
71772;BME280;59606;52.138;5.424;2022-07-23T09:40:44;102135.94;;;21.18;53.40
71772;BME280;59606;52.138;5.424;2022-07-23T09:43:25;102140.53;;;21.27;53.23
71772;BME280;59606;52.138;5.424;2022-07-23T09:46:20;102135.81;;;21.31;53.26
71772;BME280;59606;52.138;5.424;2022-07-23T09:48:48;102134.88;;;21.43;53.32
71772;BME280;59606;52.138;5.424;2022-07-23T09:51:14;102133.06;;;21.44;53.05
71772;BME280;59606;52.138;5.424;2022-07-23T09:53:44;102138.47;;;21.53;54.14
71772;BME280;59606;52.138;5.424;2022-07-23T09:56:13;102135.78;;;21.64;52.74
71772;BME280;59606;52.138;5.424;2022-07-23T09:58:41;102132.53;;;21.61;53.30
71772;BME280;59606;52.138;5.424;2022-07-23T10:01:18;102126.25;;;21.73;53.89
71772;BME280;59606;52.138;5.424;2022-07-23T10:03:46;102128.25;;;21.81;52.50
71772;BME280;59606;52.138;5.424;2022-07-23T10:06:13;102125.47;;;21.82;53.50
71772;BME280;59606;52.138;5.424;2022-07-23T10:08:41;102126.28;;;21.94;52.19
71772;BME280;59606;52.138;5.424;2022-07-23T10:11:10;102125.44;;;21.94;52.75
71772;BME280;59606;52.138;5.424;2022-07-23T10:13:40;102125.53;;;22.03;52.04
71772;BME280;59606;52.138;5.424;2022-07-23T10:16:21;102126.22;;;22.05;51.69
71772;BME280;59606;52.138;5.424;2022-07-23T10:18:53;102129.09;;;22.13;50.89
71772;BME280;59606;52.138;5.424;2022-07-23T10:21:53;102130.16;;;22.22;51.31
71772;BME280;59606;52.138;5.424;2022-07-23T10:24:35;102122.25;;;22.32;50.42
71772;BME280;59606;52.138;5.424;2022-07-23T10:30:07;102129.19;;;22.44;49.63
71772;BME280;59606;52.138;5.424;2022-07-23T10:35:37;102122.25;;;22.53;51.83
71772;BME280;59606;52.138;5.424;2022-07-23T10:38:25;102124.66;;;22.56;48.93
71772;BME280;59606;52.138;5.424;2022-07-23T10:41:00;102122.44;;;22.61;48.32
71772;BME280;59606;52.138;5.424;2022-07-23T10:43:27;102130.47;;;22.71;49.54
71772;BME280;59606;52.138;5.424;2022-07-23T10:45:55;102122.69;;;22.79;49.58
71772;BME280;59606;52.138;5.424;2022-07-23T10:48:24;102124.22;;;22.81;47.66
71772;BME280;59606;52.138;5.424;2022-07-23T10:51:10;102122.69;;;22.79;48.51
71772;BME280;59606;52.138;5.424;2022-07-23T10:56:16;102119.91;;;22.80;48.88
71772;BME280;59606;52.138;5.424;2022-07-23T10:58:48;102117.06;;;23.03;47.28
71772;BME280;59606;52.138;5.424;2022-07-23T11:01:34;102113.91;;;23.19;47.95
71772;BME280;59606;52.138;5.424;2022-07-23T11:04:02;102111.00;;;23.32;47.31
71772;BME280;59606;52.138;5.424;2022-07-23T11:09:41;102115.63;;;23.29;47.59
71772;BME280;59606;52.138;5.424;2022-07-23T11:17:27;102114.56;;;23.51;46.41
71772;BME280;59606;52.138;5.424;2022-07-23T11:22:36;102112.88;;;23.60;46.01
71772;BME280;59606;52.138;5.424;2022-07-23T11:25:03;102104.50;;;23.65;46.22
71772;BME280;59606;52.138;5.424;2022-07-23T11:27:45;102103.25;;;23.79;48.23
71772;BME280;59606;52.138;5.424;2022-07-23T11:33:15;102109.56;;;23.68;45.94
71772;BME280;59606;52.138;5.424;2022-07-23T11:35:51;102102.28;;;23.80;46.35
71772;BME280;59606;52.138;5.424;2022-07-23T11:38:25;102107.44;;;24.00;46.90
71772;BME280;59606;52.138;5.424;2022-07-23T11:40:55;102117.25;;;24.19;45.83
71772;BME280;59606;52.138;5.424;2022-07-23T11:43:25;102112.34;;;24.25;45.03
71772;BME280;59606;52.138;5.424;2022-07-23T11:45:59;102116.00;;;24.14;45.28
71772;BME280;59606;52.138;5.424;2022-07-23T11:48:28;102111.66;;;24.22;44.69
71772;BME280;59606;52.138;5.424;2022-07-23T11:50:56;102106.72;;;24.28;44.45
71772;BME280;59606;52.138;5.424;2022-07-23T11:53:28;102106.69;;;24.37;44.80
71772;BME280;59606;52.138;5.424;2022-07-23T11:56:09;102111.22;;;24.17;44.43
71772;BME280;59606;52.138;5.424;2022-07-23T11:58:37;102109.72;;;23.95;44.86
71772;BME280;59606;52.138;5.424;2022-07-23T12:01:05;102107.03;;;23.86;45.38
71772;BME280;59606;52.138;5.424;2022-07-23T12:03:31;102114.31;;;23.84;46.07
71772;BME280;59606;52.138;5.424;2022-07-23T12:05:59;102109.56;;;23.87;45.97
71772;BME280;59606;52.138;5.424;2022-07-23T12:08:26;102104.81;;;23.81;44.69
71772;BME280;59606;52.138;5.424;2022-07-23T12:10:53;102104.09;;;23.79;45.15
71772;BME280;59606;52.138;5.424;2022-07-23T12:13:21;102106.00;;;23.67;44.25
71772;BME280;59606;52.138;5.424;2022-07-23T12:15:51;102105.72;;;23.61;45.02
71772;BME280;59606;52.138;5.424;2022-07-23T12:18:25;102100.88;;;23.75;45.61
71772;BME280;59606;52.138;5.424;2022-07-23T12:20:54;102104.78;;;23.91;45.46
71772;BME280;59606;52.138;5.424;2022-07-23T12:23:24;102104.09;;;23.98;45.09
71772;BME280;59606;52.138;5.424;2022-07-23T12:25:52;102101.72;;;24.15;44.90
71772;BME280;59606;52.138;5.424;2022-07-23T12:30:51;102096.97;;;23.89;44.72
71772;BME280;59606;52.138;5.424;2022-07-23T12:35:58;102097.34;;;24.04;44.89
71772;BME280;59606;52.138;5.424;2022-07-23T12:38:27;102084.56;;;24.37;46.27
71772;BME280;59606;52.138;5.424;2022-07-23T12:40:59;102088.56;;;24.70;44.83
71772;BME280;59606;52.138;5.424;2022-07-23T12:43:27;102089.34;;;24.80;42.85
71772;BME280;59606;52.138;5.424;2022-07-23T12:45:55;102079.47;;;24.90;44.66
71772;BME280;59606;52.138;5.424;2022-07-23T12:48:36;102079.72;;;24.97;44.25
71772;BME280;59606;52.138;5.424;2022-07-23T12:51:26;102078.44;;;25.01;42.88
71772;BME280;59606;52.138;5.424;2022-07-23T12:53:57;102082.88;;;25.10;42.57
71772;BME280;59606;52.138;5.424;2022-07-23T13:01:38;102073.00;;;25.66;42.66
71772;BME280;59606;52.138;5.424;2022-07-23T13:06:46;102076.94;;;25.98;42.61
71772;BME280;59606;52.138;5.424;2022-07-23T13:09:25;102074.38;;;25.88;42.04
71772;BME280;59606;52.138;5.424;2022-07-23T13:11:54;102070.88;;;25.70;41.26
71772;BME280;59606;52.138;5.424;2022-07-23T13:14:24;102069.16;;;25.51;41.63
71772;BME280;59606;52.138;5.424;2022-07-23T13:16:53;102077.72;;;25.54;42.22
71772;BME280;59606;52.138;5.424;2022-07-23T13:19:22;102073.06;;;25.56;41.07
71772;BME280;59606;52.138;5.424;2022-07-23T13:21:50;102071.00;;;25.50;41.54
71772;BME280;59606;52.138;5.424;2022-07-23T13:24:17;102065.75;;;25.76;42.36
71772;BME280;59606;52.138;5.424;2022-07-23T13:26:45;102071.38;;;26.09;41.74
71772;BME280;59606;52.138;5.424;2022-07-23T13:29:13;102061.97;;;26.23;41.29
71772;BME280;59606;52.138;5.424;2022-07-23T13:31:42;102065.88;;;26.37;40.67
71772;BME280;59606;52.138;5.424;2022-07-23T13:34:11;102058.38;;;26.14;40.06
71772;BME280;59606;52.138;5.424;2022-07-23T13:36:38;102058.25;;;26.16;40.93